Time;durP1;ratioP1;P1;durP2;ratioP2;P2;SDS_P1;SDS_P2;PMS_P1;PMS_P2;Temp;Humidity;BMP_temperature;BMP_pressure;BME280_temperature;BME280_humidity;BME280_pressure;Samples;Min_cycle;Max_cycle;Signal;HPM_P1;HPM_P2
2023/03/26 00:00:47;;;;;;;15.57;4.53;;;;;;;7.87;100.00;-18239.91;4976291;28;20053;-84
2023/03/26 00:03:15;;;;;;;22.35;5.47;;;;;;;7.87;100.00;-18239.91;4979059;28;20466;-83
2023/03/26 00:05:41;;;;;;;17.63;5.37;;;;;;;7.87;100.00;-18240.06;4980801;28;20047;-82
2023/03/26 00:08:08;;;;;;;18.95;6.53;;;;;;;7.86;100.00;-18239.78;4975561;28;20100;-83
2023/03/26 00:10:35;;;;;;;21.25;5.68;;;;;;;7.88;100.00;-18240.19;4969785;28;20092;-84
2023/03/26 00:13:01;;;;;;;18.17;5.22;;;;;;;7.85;100.00;-18239.50;4985050;28;20061;-84
2023/03/26 00:15:27;;;;;;;19.95;4.82;;;;;;;7.84;100.00;-18239.22;4989569;28;20049;-83
2023/03/26 00:17:53;;;;;;;20.05;5.30;;;;;;;7.85;100.00;-18239.38;4969992;28;20042;-83
2023/03/26 00:20:18;;;;;;;18.33;5.50;;;;;;;7.84;100.00;-18239.22;4983056;28;20145;-83
2023/03/26 00:22:44;;;;;;;17.90;5.82;;;;;;;7.83;100.00;-18238.97;4992884;28;20041;-82
2023/03/26 00:25:10;;;;;;;17.67;5.20;;;;;;;7.82;100.00;-18238.69;5001157;28;20034;-83
2023/03/26 00:27:35;;;;;;;13.73;5.07;;;;;;;7.81;100.00;-18238.28;4993945;28;20069;-83
2023/03/26 00:30:03;;;;;;;19.88;5.90;;;;;;;7.79;100.00;-18237.84;5003395;28;20057;-83
2023/03/26 00:32:29;;;;;;;17.52;4.82;;;;;;;7.80;100.00;-18238.13;4987002;28;20042;-83
2023/03/26 00:34:56;;;;;;;21.77;5.68;;;;;;;7.77;100.00;-18237.31;5003602;28;20030;-83
2023/03/26 00:37:25;;;;;;;20.17;4.70;;;;;;;7.81;100.00;-18238.41;4986596;28;20083;-83
2023/03/26 00:39:58;;;;;;;18.63;5.10;;;;;;;7.89;100.00;-18240.59;5001261;28;20042;-83
2023/03/26 00:42:24;;;;;;;16.65;5.05;;;;;;;7.84;100.00;-18239.22;5005204;28;20632;-84
2023/03/26 00:44:53;;;;;;;17.67;6.47;;;;;;;7.90;100.00;-18240.88;4993503;28;20042;-84
2023/03/26 00:47:20;;;;;;;18.95;5.53;;;;;;;7.88;100.00;-18240.34;4997926;28;20042;-84
2023/03/26 00:49:47;;;;;;;19.92;5.53;;;;;;;7.86;100.00;-18239.66;4965805;28;20057;-84
2023/03/26 00:52:13;;;;;;;15.68;5.00;;;;;;;7.88;100.00;-18240.34;4987878;28;20050;-84
2023/03/26 00:54:39;;;;;;;17.35;5.05;;;;;;;7.83;100.00;-18238.97;4986364;28;20034;-83
2023/03/26 00:57:05;;;;;;;15.38;5.00;;;;;;;7.81;100.00;-18238.41;4988887;28;20050;-84
2023/03/26 00:59:34;;;;;;;12.23;4.68;;;;;;;7.84;100.00;-18239.22;4984101;28;20063;-84
2023/03/26 01:02:00;;;;;;;15.93;4.75;;;;;;;7.82;100.00;-18238.53;4990593;28;20043;-83
2023/03/26 01:04:33;;;;;;;12.50;4.88;;;;;;;7.86;100.00;-18239.66;4990104;28;20050;-83
2023/03/26 01:07:20;;;;;;;12.98;4.18;;;;;;;7.85;100.00;-18239.50;4973641;28;20053;-84
2023/03/26 01:09:49;;;;;;;14.75;4.30;;;;;;;7.91;100.00;-18241.16;4985549;28;20058;-83
2023/03/26 01:12:21;;;;;;;13.15;3.63;;;;;;;7.95;100.00;-18242.00;4967633;28;20509;-82
2023/03/26 01:14:49;;;;;;;12.18;4.30;;;;;;;7.99;100.00;-18243.09;4990430;28;20046;-83
2023/03/26 01:17:15;;;;;;;11.52;4.07;;;;;;;8.04;100.00;-18244.59;4984369;28;20041;-84
2023/03/26 01:19:40;;;;;;;17.05;4.53;;;;;;;8.07;100.00;-18245.28;4942099;28;20546;-84
2023/03/26 01:22:09;;;;;;;16.88;3.90;;;;;;;8.07;100.00;-18245.44;4980675;28;20050;-84
2023/03/26 01:24:35;;;;;;;;;;;;;;;8.10;100.00;-18246.25;4970835;28;20050;-84
2023/03/26 01:27:08;;;;;;;14.43;4.40;;;;;;;8.02;100.00;-18243.91;4988128;28;20003;-83
2023/03/26 01:29:58;;;;;;;14.38;3.85;;;;;;;8.02;100.00;-18243.91;4986666;28;20104;-83
2023/03/26 01:32:46;;;;;;;15.40;4.75;;;;;;;8.03;100.00;-18244.31;4987283;28;20046;-83
2023/03/26 01:35:19;;;;;;;17.80;4.68;;;;;;;7.95;100.00;-18242.00;4963215;28;20062;-84
2023/03/26 01:38:09;;;;;;;14.18;4.55;;;;;;;7.89;100.00;-18240.47;4980803;28;20046;-84
2023/03/26 01:40:45;;;;;;;15.20;5.13;;;;;;;7.86;100.00;-18239.78;4988196;28;20543;-83
2023/03/26 01:43:13;;;;;;;20.02;4.60;;;;;;;7.95;100.00;-18242.13;4986847;28;20082;-84
2023/03/26 01:45:43;;;;;;;16.50;4.47;;;;;;;7.95;100.00;-18242.00;4976237;28;20141;-83
2023/03/26 01:48:08;;;;;;;21.15;5.07;;;;;;;7.91;100.00;-18241.16;4987783;28;20046;-84
2023/03/26 01:50:34;;;;;;;14.38;4.97;;;;;;;7.92;100.00;-18241.31;4981631;28;20050;-82
2023/03/26 01:52:59;;;;;;;19.17;4.78;;;;;;;7.96;100.00;-18242.25;4990462;28;20050;-84
2023/03/26 01:55:37;;;;;;;17.83;5.22;;;;;;;7.97;100.00;-18242.53;4984711;28;20421;-83
2023/03/26 01:58:17;;;;;;;19.15;5.00;;;;;;;7.97;100.00;-18242.53;4980267;28;20063;-84
2023/03/26 02:01:00;;;;;;;20.20;5.90;;;;;;;7.96;100.00;-18242.25;4983711;28;20046;-84
2023/03/26 02:03:34;;;;;;;33.38;6.90;;;;;;;7.93;100.00;-18241.44;4959852;28;20047;-83
2023/03/26 02:06:10;;;;;;;18.48;6.80;;;;;;;7.94;100.00;-18241.72;4944354;28;20138;-84
2023/03/26 02:09:00;;;;;;;24.00;7.28;;;;;;;7.97;100.00;-18242.53;4940193;28;20046;-83
2023/03/26 02:11:26;;;;;;;20.27;5.93;;;;;;;8.01;100.00;-18243.63;4934377;28;20047;-82
2023/03/26 02:13:52;;;;;;;22.55;6.25;;;;;;;8.02;100.00;-18243.91;4933663;28;20048;-83
2023/03/26 02:16:19;;;;;;;31.65;7.07;;;;;;;8.01;100.00;-18243.63;4932541;29;20083;-84
2023/03/26 02:18:50;;;;;;;24.83;7.93;;;;;;;8.02;100.00;-18243.91;4931331;28;20051;-83
2023/03/26 02:21:21;;;;;;;29.67;9.20;;;;;;;8.01;100.00;-18243.63;4918741;29;20538;-83
2023/03/26 02:23:49;;;;;;;29.42;7.03;;;;;;;8.00;100.00;-18243.50;4934060;28;20177;-82
2023/03/26 02:26:17;;;;;;;31.50;7.72;;;;;;;8.02;100.00;-18243.91;4935197;28;20151;-84
2023/03/26 02:28:43;;;;;;;29.88;8.18;;;;;;;8.02;100.00;-18243.91;4936084;28;20119;-83
2023/03/26 02:31:09;;;;;;;30.77;8.45;;;;;;;8.03;100.00;-18244.19;4934558;28;20088;-83
2023/03/26 02:33:35;;;;;;;29.80;8.73;;;;;;;7.99;100.00;-18243.22;4935393;28;20090;-83
2023/03/26 02:36:01;;;;;;;31.73;9.45;;;;;;;8.00;100.00;-18243.38;4938341;28;20055;-83
2023/03/26 02:38:35;;;;;;;29.30;7.90;;;;;;;8.00;100.00;-18243.50;4939805;28;20043;-83
2023/03/26 02:41:04;;;;;;;23.98;8.15;;;;;;;8.00;100.00;-18243.50;4955957;28;20049;-82
2023/03/26 02:43:29;;;;;;;24.63;8.00;;;;;;;8.01;100.00;-18243.63;4979029;28;20047;-82
2023/03/26 02:45:55;;;;;;;29.70;8.52;;;;;;;8.00;100.00;-18243.38;5007412;23;20054;-80
2023/03/26 02:48:21;;;;;;;32.97;7.93;;;;;;;8.01;100.00;-18243.63;4999665;28;20053;-82
2023/03/26 02:50:52;;;;;;;27.60;8.25;;;;;;;8.00;100.00;-18243.38;5002933;28;20033;-80
2023/03/26 02:53:18;;;;;;;34.55;9.02;;;;;;;8.00;100.00;-18243.38;4977920;28;20049;-81
2023/03/26 02:55:44;;;;;;;28.58;7.90;;;;;;;7.92;100.00;-18241.31;4986289;28;20306;-81
2023/03/26 02:58:11;;;;;;;31.30;9.23;;;;;;;7.93;100.00;-18241.44;4974727;28;20038;-82
2023/03/26 03:00:36;;;;;;;29.13;8.18;;;;;;;7.93;100.00;-18241.44;4993952;28;20497;-83
2023/03/26 03:03:03;;;;;;;35.35;8.77;;;;;;;7.93;100.00;-18241.56;4991713;28;20053;-81
2023/03/26 03:05:30;;;;;;;30.05;8.32;;;;;;;7.94;100.00;-18241.72;4974671;28;20046;-82
2023/03/26 03:07:57;;;;;;;25.90;8.40;;;;;;;7.94;100.00;-18241.72;4963049;28;20038;-82
2023/03/26 03:10:24;;;;;;;35.67;10.00;;;;;;;7.94;100.00;-18241.84;4982859;28;20046;-82
2023/03/26 03:12:49;;;;;;;22.60;8.15;;;;;;;7.98;100.00;-18242.81;4983031;28;20125;-83
2023/03/26 03:15:15;;;;;;;31.60;9.45;;;;;;;7.95;100.00;-18242.00;4982505;28;20125;-82
2023/03/26 03:17:40;;;;;;;31.88;8.60;;;;;;;7.95;100.00;-18242.13;4983201;28;20043;-83
2023/03/26 03:20:10;;;;;;;41.15;10.95;;;;;;;7.96;100.00;-18242.25;4984945;28;20060;-82
2023/03/26 03:22:35;;;;;;;35.95;10.88;;;;;;;7.96;100.00;-18242.25;4984371;28;20046;-81
2023/03/26 03:25:02;;;;;;;37.25;11.90;;;;;;;7.98;100.00;-18242.81;4971801;28;20101;-82
2023/03/26 03:27:28;;;;;;;35.15;11.13;;;;;;;7.96;100.00;-18242.25;4983065;28;20137;-82
2023/03/26 03:29:54;;;;;;;41.05;12.82;;;;;;;7.97;100.00;-18242.69;4983331;28;20130;-81
2023/03/26 03:32:21;;;;;;;38.65;13.27;;;;;;;7.95;100.00;-18242.00;4984260;28;20062;-82
2023/03/26 03:34:49;;;;;;;39.55;12.40;;;;;;;7.93;100.00;-18241.56;4983396;28;20500;-82
2023/03/26 03:37:15;;;;;;;29.95;9.32;;;;;;;7.90;100.00;-18240.88;4985291;28;20702;-83
2023/03/26 03:39:41;;;;;;;38.75;11.93;;;;;;;7.93;100.00;-18241.44;4985354;28;20046;-80
2023/03/26 03:42:06;;;;;;;40.08;12.57;;;;;;;7.95;100.00;-18242.00;4987440;28;20053;-82
2023/03/26 03:44:31;;;;;;;32.65;11.98;;;;;;;7.94;100.00;-18241.72;4987112;28;20061;-83
2023/03/26 03:46:57;;;;;;;38.13;12.15;;;;;;;7.93;100.00;-18241.44;4986049;28;20054;-82
2023/03/26 03:49:22;;;;;;;41.03;13.00;;;;;;;7.90;100.00;-18240.75;4988679;28;20077;-80
2023/03/26 03:51:47;;;;;;;36.13;10.63;;;;;;;7.87;100.00;-18239.91;4984803;28;20137;-82
2023/03/26 03:54:13;;;;;;;35.78;10.65;;;;;;;7.86;100.00;-18239.66;4986984;28;20042;-82
2023/03/26 03:56:38;;;;;;;36.92;11.40;;;;;;;7.87;100.00;-18239.91;4988049;28;20074;-81
2023/03/26 03:59:04;;;;;;;42.20;12.07;;;;;;;7.88;100.00;-18240.19;4986510;28;20395;-82
2023/03/26 04:01:30;;;;;;;36.42;12.45;;;;;;;7.88;100.00;-18240.34;4988025;28;20122;-82
2023/03/26 04:03:57;;;;;;;34.95;10.20;;;;;;;7.88;100.00;-18240.19;4985694;28;20193;-82
2023/03/26 04:06:24;;;;;;;34.40;10.50;;;;;;;7.89;100.00;-18240.47;4987511;28;20720;-82
2023/03/26 04:08:49;;;;;;;42.13;9.60;;;;;;;7.87;100.00;-18240.06;4969570;28;20130;-82
2023/03/26 04:11:15;;;;;;;33.95;9.85;;;;;;;7.89;100.00;-18240.47;4989017;28;20141;-80
2023/03/26 04:13:40;;;;;;;33.20;9.20;;;;;;;7.87;100.00;-18239.91;4986382;28;20120;-82
2023/03/26 04:16:06;;;;;;;39.95;11.48;;;;;;;7.90;100.00;-18240.88;4987486;28;20462;-82
2023/03/26 04:18:32;;;;;;;37.13;12.30;;;;;;;7.90;100.00;-18240.88;4988054;28;20045;-82
2023/03/26 04:21:01;;;;;;;47.30;12.43;;;;;;;7.89;100.00;-18240.47;4986478;28;20050;-80
2023/03/26 04:23:27;;;;;;;;;;;;;;;7.86;100.00;-18239.78;4968449;28;20073;-81
2023/03/26 04:25:54;;;;;;;41.60;10.98;;;;;;;7.79;100.00;-18237.72;4985489;28;20385;-82
2023/03/26 04:28:47;;;;;;;39.47;11.23;;;;;;;7.82;100.00;-18238.69;4987462;28;20456;-80
2023/03/26 04:31:16;;;;;;;39.88;11.02;;;;;;;7.83;100.00;-18238.97;5000461;28;20046;-82
2023/03/26 04:33:47;;;;;;;39.40;10.63;;;;;;;7.83;100.00;-18238.81;4969237;28;20046;-81
2023/03/26 04:36:15;;;;;;;39.20;12.15;;;;;;;7.84;100.00;-18239.22;4987920;28;20057;-82
2023/03/26 04:38:48;;;;;;;39.80;10.68;;;;;;;7.84;100.00;-18239.22;4986275;28;20080;-82
2023/03/26 04:41:14;;;;;;;35.72;11.50;;;;;;;7.84;100.00;-18239.09;4987589;28;20042;-82
2023/03/26 04:43:45;;;;;;;43.33;13.43;;;;;;;7.86;100.00;-18239.78;4983757;28;20125;-80
2023/03/26 04:46:17;;;;;;;32.08;9.95;;;;;;;7.84;100.00;-18239.22;4969470;28;20073;-82
2023/03/26 04:48:42;;;;;;;37.42;11.05;;;;;;;7.83;100.00;-18238.81;4984786;28;20104;-81
2023/03/26 04:51:16;;;;;;;36.00;11.45;;;;;;;7.82;100.00;-18238.69;4987669;28;20085;-82
2023/03/26 04:53:42;;;;;;;39.65;10.25;;;;;;;7.81;100.00;-18238.41;4980476;28;20133;-82
2023/03/26 04:56:30;;;;;;;35.15;10.50;;;;;;;7.83;100.00;-18238.97;4985515;28;20537;-82
2023/03/26 04:58:59;;;;;;;32.70;10.88;;;;;;;7.84;100.00;-18239.09;4985418;28;20038;-82
2023/03/26 05:01:27;;;;;;;34.03;11.27;;;;;;;7.84;100.00;-18239.22;4968267;28;20054;-80
2023/03/26 05:03:53;;;;;;;37.58;11.18;;;;;;;7.87;100.00;-18239.91;4983318;28;20051;-82
2023/03/26 05:06:19;;;;;;;40.45;12.18;;;;;;;7.91;100.00;-18241.16;4968283;28;20890;-81
2023/03/26 05:08:45;;;;;;;37.97;10.82;;;;;;;7.91;100.00;-18241.03;4983723;28;20050;-81
2023/03/26 05:11:10;;;;;;;45.38;11.23;;;;;;;7.87;100.00;-18239.91;4987808;28;20043;-82
2023/03/26 05:13:36;;;;;;;41.97;11.00;;;;;;;7.88;100.00;-18240.19;4986029;28;20133;-83
2023/03/26 05:16:02;;;;;;;44.60;11.10;;;;;;;7.88;100.00;-18240.19;4967159;28;20096;-82
2023/03/26 05:18:27;;;;;;;42.97;11.18;;;;;;;7.84;100.00;-18239.22;4986226;28;20417;-82
2023/03/26 05:20:52;;;;;;;33.03;10.70;;;;;;;7.81;100.00;-18238.41;4983805;28;21463;-83
2023/03/26 05:23:18;;;;;;;33.83;11.10;;;;;;;7.91;100.00;-18241.03;4984536;28;20081;-82
2023/03/26 05:25:43;;;;;;;35.00;10.18;;;;;;;7.97;100.00;-18242.53;4984541;28;20437;-82
2023/03/26 05:28:09;;;;;;;38.90;11.57;;;;;;;7.98;100.00;-18242.81;4985910;28;20042;-82
2023/03/26 05:30:35;;;;;;;42.45;10.57;;;;;;;7.86;100.00;-18239.78;4985975;28;20046;-82
2023/03/26 05:33:01;;;;;;;36.33;11.40;;;;;;;7.86;100.00;-18239.78;4969126;28;20046;-81
2023/03/26 05:35:27;;;;;;;30.13;8.65;;;;;;;7.76;100.00;-18237.03;4986776;28;20116;-82
2023/03/26 05:37:52;;;;;;;38.30;11.60;;;;;;;7.78;100.00;-18237.44;4985275;28;20505;-81
2023/03/26 05:40:18;;;;;;;40.65;10.77;;;;;;;7.78;100.00;-18237.59;4986921;28;20073;-82
2023/03/26 05:42:44;;;;;;;30.52;9.30;;;;;;;7.76;100.00;-18237.03;4984973;28;20461;-79
2023/03/26 05:45:12;;;;;;;41.08;11.68;;;;;;;7.74;100.00;-18236.47;4984510;28;20065;-81
2023/03/26 05:47:37;;;;;;;43.15;12.63;;;;;;;7.74;100.00;-18236.47;4986112;28;20125;-79
2023/03/26 05:50:03;;;;;;;36.90;10.70;;;;;;;7.78;100.00;-18237.44;4985358;28;20565;-82
2023/03/26 05:52:29;;;;;;;38.13;12.73;;;;;;;7.77;100.00;-18237.16;4986193;28;20053;-82
2023/03/26 05:54:55;;;;;;;33.63;11.02;;;;;;;7.78;100.00;-18237.59;4983752;28;20050;-81
2023/03/26 05:57:22;;;;;;;30.70;10.07;;;;;;;7.77;100.00;-18237.16;4984357;28;20494;-82
2023/03/26 05:59:48;;;;;;;32.85;9.27;;;;;;;7.76;100.00;-18236.88;4983427;28;20054;-82
2023/03/26 06:02:14;;;;;;;35.08;9.73;;;;;;;7.76;100.00;-18237.03;4979403;28;20045;-80
2023/03/26 06:04:41;;;;;;;38.97;10.35;;;;;;;7.74;100.00;-18236.47;4983750;28;20050;-80
2023/03/26 06:07:08;;;;;;;30.35;9.73;;;;;;;7.76;100.00;-18237.03;4985890;28;20402;-83
2023/03/26 06:09:43;;;;;;;29.83;9.30;;;;;;;7.73;100.00;-18236.06;4986429;28;20050;-81
2023/03/26 06:12:10;;;;;;;31.25;10.02;;;;;;;7.75;100.00;-18236.63;4984616;28;20068;-81
2023/03/26 06:14:36;;;;;;;32.92;9.70;;;;;;;7.74;100.00;-18236.34;4967036;28;20164;-83
2023/03/26 06:17:01;;;;;;;34.33;9.52;;;;;;;7.77;100.00;-18237.16;4967115;28;20193;-82
2023/03/26 06:19:27;;;;;;;45.72;10.63;;;;;;;7.77;100.00;-18237.16;4967049;28;20731;-81
2023/03/26 06:21:52;;;;;;;30.35;9.85;;;;;;;7.79;100.00;-18237.84;4981827;28;20045;-82
2023/03/26 06:24:18;;;;;;;45.78;11.40;;;;;;;7.77;100.00;-18237.31;4983571;28;20053;-82
2023/03/26 06:26:45;;;;;;;31.85;9.88;;;;;;;7.79;100.00;-18237.72;4983166;28;20595;-82
2023/03/26 06:29:10;;;;;;;40.75;10.27;;;;;;;7.80;100.00;-18238.13;4984346;28;20120;-82
2023/03/26 06:31:36;;;;;;;42.55;10.75;;;;;;;7.81;100.00;-18238.41;4983862;28;20121;-82
2023/03/26 06:34:01;;;;;;;32.38;11.30;;;;;;;7.81;100.00;-18238.28;4967608;28;20549;-82
2023/03/26 06:36:26;;;;;;;37.67;11.15;;;;;;;7.84;100.00;-18239.22;4986669;28;20031;-82
2023/03/26 06:38:52;;;;;;;40.55;10.80;;;;;;;7.83;100.00;-18238.97;4986303;28;20117;-82
2023/03/26 06:41:17;;;;;;;32.92;10.02;;;;;;;7.86;100.00;-18239.78;4986800;28;20046;-81
2023/03/26 06:43:42;;;;;;;32.63;10.73;;;;;;;7.85;100.00;-18239.50;4968047;28;20070;-82
2023/03/26 06:46:08;;;;;;;30.90;9.35;;;;;;;7.86;100.00;-18239.66;4988019;28;20042;-80
2023/03/26 06:48:34;;;;;;;35.28;10.20;;;;;;;7.85;100.00;-18239.50;4971012;28;20051;-81
2023/03/26 06:50:59;;;;;;;34.03;9.95;;;;;;;7.87;100.00;-18240.06;4984579;28;20065;-82
2023/03/26 06:53:24;;;;;;;33.50;10.32;;;;;;;7.91;100.00;-18241.03;4985549;28;20101;-82
2023/03/26 06:55:52;;;;;;;38.08;11.05;;;;;;;7.95;100.00;-18242.00;4985730;28;20061;-81
2023/03/26 06:58:17;;;;;;;30.90;10.50;;;;;;;7.96;100.00;-18242.25;4984861;28;20046;-82
2023/03/26 07:00:43;;;;;;;37.42;10.30;;;;;;;8.01;100.00;-18243.63;4986099;28;20038;-82
2023/03/26 07:03:10;;;;;;;36.28;9.70;;;;;;;8.02;100.00;-18244.06;4989041;28;20057;-81
2023/03/26 07:05:35;;;;;;;33.85;10.88;;;;;;;8.03;100.00;-18244.19;4982765;28;20046;-82
2023/03/26 07:08:01;;;;;;;34.15;10.00;;;;;;;8.03;100.00;-18244.19;4984623;28;20872;-81
2023/03/26 07:10:27;;;;;;;31.88;10.50;;;;;;;8.06;100.00;-18245.16;4985045;28;20121;-81
2023/03/26 07:12:52;;;;;;;33.15;9.80;;;;;;;8.05;100.00;-18244.88;4983696;28;20180;-82
2023/03/26 07:15:18;;;;;;;36.78;11.43;;;;;;;8.08;100.00;-18245.69;4983473;28;20138;-84
2023/03/26 07:17:46;;;;;;;35.03;10.50;;;;;;;8.11;100.00;-18246.38;4980796;28;20081;-83
2023/03/26 07:20:18;;;;;;;39.13;11.77;;;;;;;8.14;100.00;-18247.22;4967002;28;20038;-84
2023/03/26 07:22:43;;;;;;;42.65;11.10;;;;;;;8.15;100.00;-18247.50;4981784;28;20038;-81
2023/03/26 07:25:09;;;;;;;40.45;12.35;;;;;;;8.13;100.00;-18246.94;4983736;28;20042;-84
2023/03/26 07:27:53;;;;;;;35.05;11.27;;;;;;;8.12;100.00;-18246.66;4966679;28;20641;-83
2023/03/26 07:30:45;;;;;;;39.55;11.90;;;;;;;8.14;100.00;-18247.34;4997852;28;20054;-83
2023/03/26 07:33:20;;;;;;;43.25;12.27;;;;;;;8.16;100.00;-18247.78;4969881;28;20050;-84
2023/03/26 07:35:52;;;;;;;37.00;11.43;;;;;;;8.21;100.00;-18249.00;4982247;28;20041;-83
2023/03/26 07:38:24;;;;;;;38.65;11.80;;;;;;;8.23;100.00;-18249.69;4984444;28;20057;-83
2023/03/26 07:41:10;;;;;;;37.15;12.90;;;;;;;8.27;100.00;-18250.66;4982092;28;20145;-85
2023/03/26 07:44:02;;;;;;;32.75;11.93;;;;;;;8.28;100.00;-18250.94;4984815;28;20046;-83
2023/03/26 07:46:30;;;;;;;38.25;12.30;;;;;;;8.22;100.00;-18249.28;4995354;28;20137;-84
2023/03/26 07:49:00;;;;;;;36.58;12.35;;;;;;;8.21;100.00;-18249.16;4965576;28;20041;-83
2023/03/26 07:51:26;;;;;;;41.60;12.50;;;;;;;8.23;100.00;-18249.56;4972713;28;20113;-84
2023/03/26 07:53:52;;;;;;;32.55;11.50;;;;;;;8.25;100.00;-18250.25;4967443;28;21689;-84
2023/03/26 07:56:37;;;;;;;37.30;11.30;;;;;;;8.30;100.00;-18251.50;4983179;28;20050;-85
2023/03/26 07:59:12;;;;;;;34.47;10.82;;;;;;;8.33;100.00;-18252.44;5011367;23;20050;-87
2023/03/26 08:01:55;;;;;;;36.85;10.27;;;;;;;8.36;100.00;-18253.28;5005107;28;20045;-86
2023/03/26 08:04:20;;;;;;;29.42;9.73;;;;;;;8.36;100.00;-18253.28;4978170;28;20045;-86
2023/03/26 08:10:02;;;;;;;36.95;10.18;;;;;;;8.43;100.00;-18254.94;3314467;26;20052;-83
2023/03/26 08:12:56;;;;;;;33.28;10.20;;;;;;;8.41;100.00;-18254.38;4979916;28;20051;-83
2023/03/26 08:15:37;;;;;;;42.00;11.27;;;;;;;8.42;100.00;-18254.66;4956425;28;20421;-83
2023/03/26 08:18:26;;;;;;;28.52;9.25;;;;;;;8.43;100.00;-18255.06;4976986;28;20414;-84
2023/03/26 08:21:00;;;;;;;31.67;11.33;;;;;;;8.44;100.00;-18255.34;4983873;28;20125;-83
2023/03/26 08:23:38;;;;;;;32.28;10.63;;;;;;;8.51;100.00;-18257.13;4982874;28;21160;-84
2023/03/26 08:26:24;;;;;;;40.17;10.55;;;;;;;8.48;100.00;-18256.31;4980471;28;20085;-84
2023/03/26 08:29:02;;;;;;;35.72;10.40;;;;;;;8.48;100.00;-18256.44;4970486;28;20062;-84
2023/03/26 08:31:40;;;;;;;35.77;10.10;;;;;;;8.49;100.00;-18256.59;4985746;28;20046;-84
2023/03/26 08:34:10;;;;;;;33.97;10.82;;;;;;;8.51;100.00;-18257.28;4982847;28;20054;-84
2023/03/26 08:36:36;;;;;;;33.40;8.93;;;;;;;8.50;100.00;-18256.88;4983672;28;20042;-84
2023/03/26 08:39:02;;;;;;;32.85;9.55;;;;;;;8.52;100.00;-18257.56;4988659;28;20100;-84
2023/03/26 08:41:54;;;;;;;30.38;10.68;;;;;;;8.58;100.00;-18259.06;4987370;28;20072;-83
2023/03/26 08:44:22;;;;;;;33.92;11.35;;;;;;;8.56;100.00;-18258.50;4979237;28;20065;-84
2023/03/26 08:47:05;;;;;;;29.75;10.45;;;;;;;8.56;100.00;-18258.66;4978241;28;20041;-84
2023/03/26 08:49:59;;;;;;;36.63;10.75;;;;;;;8.53;100.00;-18257.69;4984859;28;20046;-84
2023/03/26 08:52:41;;;;;;;27.25;10.25;;;;;;;8.53;100.00;-18257.69;4961065;28;20482;-84
2023/03/26 08:55:29;;;;;;;30.92;9.82;;;;;;;8.61;100.00;-18259.75;4987632;28;20150;-83
2023/03/26 08:58:26;;;;;;;33.47;10.02;;;;;;;8.65;100.00;-18261.00;4982281;28;20050;-84
2023/03/26 09:01:07;;;;;;;41.33;11.07;;;;;;;8.64;100.00;-18260.72;4984283;28;20042;-84
2023/03/26 09:03:54;;;;;;;26.23;9.57;;;;;;;8.67;100.00;-18261.53;4982291;28;20058;-83
2023/03/26 09:06:32;;;;;;;31.10;10.25;;;;;;;8.79;100.00;-18264.72;4982649;28;20046;-84
2023/03/26 09:09:19;;;;;;;35.60;10.18;;;;;;;8.74;100.00;-18263.47;4991748;28;20053;-84
2023/03/26 09:12:20;;;;;;;43.85;10.52;;;;;;;8.74;100.00;-18263.47;4984969;28;20042;-83
2023/03/26 09:15:04;;;;;;;31.95;10.57;;;;;;;8.78;100.00;-18264.56;4988371;28;20034;-84
2023/03/26 09:17:44;;;;;;;34.15;10.52;;;;;;;8.81;100.00;-18265.41;4991074;28;20046;-84
2023/03/26 09:20:43;;;;;;;35.40;10.73;;;;;;;8.91;100.00;-18268.00;4990320;28;20098;-84
2023/03/26 09:23:18;;;;;;;37.17;11.13;;;;;;;8.80;100.00;-18264.97;4973278;28;20053;-84
2023/03/26 09:26:10;;;;;;;31.23;10.45;;;;;;;8.87;100.00;-18266.91;4988512;28;20046;-84
2023/03/26 09:29:03;;;;;;;34.00;10.15;;;;;;;8.84;100.00;-18265.94;4987987;28;20404;-84
2023/03/26 09:31:35;;;;;;;29.55;10.15;;;;;;;8.85;100.00;-18266.22;4990154;28;20046;-84
2023/03/26 09:34:25;;;;;;;28.75;9.50;;;;;;;8.87;100.00;-18266.78;4974401;28;20410;-84
2023/03/26 09:37:04;;;;;;;42.95;11.68;;;;;;;9.01;100.00;-18270.63;4990869;28;20038;-84
2023/03/26 09:39:56;;;;;;;28.02;9.82;;;;;;;9.01;100.00;-18270.63;4990255;28;20074;-83
2023/03/26 09:42:43;;;;;;;36.50;10.73;;;;;;;8.99;100.00;-18270.06;4974576;28;20494;-84
2023/03/26 09:45:51;;;;;;;30.40;9.00;;;;;;;8.93;100.00;-18268.41;4987238;28;20073;-84
2023/03/26 09:48:35;;;;;;;37.15;9.95;;;;;;;9.00;100.00;-18270.47;4961118;28;20078;-84
2023/03/26 09:51:18;;;;;;;32.97;11.23;;;;;;;8.93;100.00;-18268.56;4982111;28;20097;-83
2023/03/26 09:54:05;;;;;;;34.28;10.27;;;;;;;8.99;100.00;-18270.06;4987989;28;20034;-85
2023/03/26 09:56:42;;;;;;;29.45;9.88;;;;;;;9.04;100.00;-18271.44;4987588;28;20048;-84
2023/03/26 09:59:23;;;;;;;31.67;9.13;;;;;;;9.06;100.00;-18272.00;4986595;28;20533;-84
2023/03/26 10:02:20;;;;;;;36.83;11.13;;;;;;;9.11;100.00;-18273.38;4986510;28;20128;-85
2023/03/26 10:04:58;;;;;;;26.90;10.63;;;;;;;9.13;100.00;-18273.94;4982796;28;20121;-84
2023/03/26 10:07:32;;;;;;;28.95;10.23;;;;;;;9.15;100.00;-18274.34;4981413;28;20062;-84
2023/03/26 10:10:30;;;;;;;28.65;11.27;;;;;;;9.12;100.00;-18273.50;4984185;28;20135;-84
2023/03/26 10:13:14;;;;;;;29.30;10.77;;;;;;;9.09;100.00;-18272.81;4968950;28;20035;-85
2023/03/26 10:15:53;;;;;;;34.17;11.00;;;;;;;9.08;100.00;-18272.53;4988821;28;20050;-84
2023/03/26 10:18:29;;;;;;;33.03;10.38;;;;;;;9.11;100.00;-18273.38;4986557;28;20137;-85
2023/03/26 10:21:04;;;;;;;36.88;10.85;;;;;;;9.10;100.00;-18273.09;4987972;28;20738;-85
2023/03/26 10:23:45;;;;;;;33.40;13.93;;;;;;;9.07;100.00;-18272.28;4958655;28;20047;-85
2023/03/26 10:26:31;;;;;;;34.88;14.10;;;;;;;9.07;100.00;-18272.13;4976596;28;20458;-85
2023/03/26 10:29:24;;;;;;;40.10;16.05;;;;;;;9.00;100.00;-18270.47;4983233;28;20038;-86
2023/03/26 10:31:56;;;;;;;32.67;15.27;;;;;;;8.78;100.00;-18264.56;4986828;28;20052;-84
2023/03/26 10:34:48;;;;;;;28.35;15.05;;;;;;;8.72;100.00;-18262.78;4987344;28;20535;-84
2023/03/26 10:37:29;;;;;;;31.65;16.40;;;;;;;8.48;100.00;-18256.31;4972748;28;20042;-85
2023/03/26 10:40:06;;;;;;;32.33;16.83;;;;;;;8.47;100.00;-18256.16;4986584;28;20041;-85
2023/03/26 10:42:48;;;;;;;33.97;15.95;;;;;;;8.53;100.00;-18257.81;4987975;28;20121;-85
2023/03/26 10:45:25;;;;;;;32.63;16.25;;;;;;;8.46;100.00;-18255.91;4967375;28;20061;-85
2023/03/26 10:48:18;;;;;;;33.67;16.17;;;;;;;8.44;100.00;-18255.22;4987831;28;20073;-84
2023/03/26 10:50:55;;;;;;;36.40;16.90;;;;;;;8.36;100.00;-18253.28;4984896;28;20046;-85
2023/03/26 10:53:32;;;;;;;34.50;17.42;;;;;;;8.38;100.00;-18253.69;4978386;28;20046;-85
2023/03/26 10:56:33;;;;;;;35.20;17.40;;;;;;;8.43;100.00;-18255.06;4985403;28;20049;-85
2023/03/26 10:59:05;;;;;;;35.42;17.55;;;;;;;8.45;100.00;-18255.47;4952801;28;20076;-84
2023/03/26 11:01:30;;;;;;;51.75;20.10;;;;;;;8.44;100.00;-18255.22;4989371;28;20055;-84
2023/03/26 11:04:09;;;;;;;40.90;19.83;;;;;;;8.38;100.00;-18253.69;4989925;28;20038;-85
2023/03/26 11:06:38;;;;;;;40.35;20.00;;;;;;;8.43;100.00;-18255.06;4989473;28;20407;-84
2023/03/26 11:09:39;;;;;;;43.45;21.95;;;;;;;8.38;100.00;-18253.56;4975855;28;20038;-85
2023/03/26 11:12:45;;;;;;;42.65;19.98;;;;;;;8.35;100.00;-18252.88;4956114;28;20569;-85
2023/03/26 11:15:25;;;;;;;42.25;20.20;;;;;;;8.27;100.00;-18250.78;4975174;28;20072;-85
2023/03/26 11:17:59;;;;;;;40.28;19.88;;;;;;;8.25;100.00;-18250.09;4983271;28;20071;-85
2023/03/26 11:20:50;;;;;;;37.58;19.65;;;;;;;8.28;100.00;-18250.94;4978174;28;20047;-83
2023/03/26 11:23:15;;;;;;;41.45;21.00;;;;;;;8.27;100.00;-18250.66;4976095;28;20490;-85
2023/03/26 11:25:49;;;;;;;45.67;22.33;;;;;;;8.25;100.00;-18250.25;4981355;28;20153;-83
2023/03/26 11:28:27;;;;;;;43.10;20.25;;;;;;;8.37;100.00;-18253.41;4978534;28;20622;-86
2023/03/26 11:31:08;;;;;;;47.53;23.08;;;;;;;8.30;100.00;-18251.50;4976816;28;20047;-86
2023/03/26 11:33:42;;;;;;;47.40;22.88;;;;;;;8.32;100.00;-18252.03;4975873;28;20046;-85
2023/03/26 11:36:13;;;;;;;49.53;22.50;;;;;;;8.39;100.00;-18253.84;4971905;28;20526;-85
2023/03/26 11:38:45;;;;;;;41.40;22.10;;;;;;;8.40;100.00;-18254.09;4982340;28;20050;-85